Weather at Hiroshima Airport

Public forecast

Using degrees Celsius for public forecast. Weather courtesy of forecast.io.

Current aviation weather report (METAR) for Hiroshima Airport

Retrieved 2021/01/18 22:00 UTC (46 minutes ago):

RJOA 182200Z 29003KT 9999 FEW025 M02/M04 Q1023

Aviation forecast (TAF) for Hiroshima Airport

Retrieved 2021/01/18 18:00 UTC (5 hours ago):

TAF RJOA 181712Z 1818/2000 30010KT 9999 FEW020 BKN040 TEMPO 1818/1821 2000 -SHSN